sensor_id;sensor_type;location;lat;lon;timestamp;pressure;altitude;pressure_sealevel;temperature;humidity
21821;BME280;11073;48.586;12.066;2022-12-11T00:02:04;95543.50;;;1.60;73.27
21821;BME280;11073;48.586;12.066;2022-12-11T00:04:33;95543.66;;;1.59;73.25
21821;BME280;11073;48.586;12.066;2022-12-11T00:07:02;95545.94;;;1.55;73.29
21821;BME280;11073;48.586;12.066;2022-12-11T00:09:31;95548.41;;;1.57;73.27
21821;BME280;11073;48.586;12.066;2022-12-11T00:12:00;95546.16;;;1.54;73.07
21821;BME280;11073;48.586;12.066;2022-12-11T00:14:29;95544.50;;;1.46;72.94
21821;BME280;11073;48.586;12.066;2022-12-11T00:16:59;95548.78;;;1.41;72.89
21821;BME280;11073;48.586;12.066;2022-12-11T00:19:29;95545.72;;;1.44;73.07
21821;BME280;11073;48.586;12.066;2022-12-11T00:21:57;95552.50;;;1.40;72.91
21821;BME280;11073;48.586;12.066;2022-12-11T00:24:26;95547.97;;;1.40;73.03
21821;BME280;11073;48.586;12.066;2022-12-11T00:26:54;95549.63;;;1.41;72.97
21821;BME280;11073;48.586;12.066;2022-12-11T00:29:23;95552.69;;;1.45;72.93
21821;BME280;11073;48.586;12.066;2022-12-11T00:31:52;95517.38;;;1.16;72.86
21821;BME280;11073;48.586;12.066;2022-12-11T00:34:21;95555.56;;;1.43;72.77
21821;BME280;11073;48.586;12.066;2022-12-11T00:36:51;95548.38;;;1.37;72.71
21821;BME280;11073;48.586;12.066;2022-12-11T00:39:20;95564.81;;;1.41;72.50
21821;BME280;11073;48.586;12.066;2022-12-11T00:41:49;95549.81;;;1.33;72.63
21821;BME280;11073;48.586;12.066;2022-12-11T00:44:18;95556.56;;;1.35;72.57
21821;BME280;11073;48.586;12.066;2022-12-11T00:46:46;95553.50;;;1.32;72.66
21821;BME280;11073;48.586;12.066;2022-12-11T00:49:15;95558.63;;;1.33;72.46
21821;BME280;11073;48.586;12.066;2022-12-11T00:51:43;95559.84;;;1.24;72.47
21821;BME280;11073;48.586;12.066;2022-12-11T00:54:14;95563.13;;;1.26;72.61
21821;BME280;11073;48.586;12.066;2022-12-11T00:56:42;95564.38;;;1.24;72.45
21821;BME280;11073;48.586;12.066;2022-12-11T00:59:11;95571.34;;;1.25;72.53
21821;BME280;11073;48.586;12.066;2022-12-11T01:01:40;95574.00;;;1.25;72.50
21821;BME280;11073;48.586;12.066;2022-12-11T01:04:09;95573.56;;;1.21;72.51
21821;BME280;11073;48.586;12.066;2022-12-11T01:06:38;95584.44;;;1.20;72.38
21821;BME280;11073;48.586;12.066;2022-12-11T01:09:07;95580.53;;;1.16;72.33
21821;BME280;11073;48.586;12.066;2022-12-11T01:11:54;95576.66;;;1.18;72.39
21821;BME280;11073;48.586;12.066;2022-12-11T01:14:24;95557.75;;;1.06;72.29
21821;BME280;11073;48.586;12.066;2022-12-11T01:16:53;95584.22;;;1.21;72.30
21821;BME280;11073;48.586;12.066;2022-12-11T01:19:22;95588.53;;;1.22;72.50
21821;BME280;11073;48.586;12.066;2022-12-11T01:21:51;95589.19;;;1.24;72.48
21821;BME280;11073;48.586;12.066;2022-12-11T01:24:20;95593.50;;;1.25;72.31
21821;BME280;11073;48.586;12.066;2022-12-11T01:26:49;95588.78;;;1.27;72.50
21821;BME280;11073;48.586;12.066;2022-12-11T01:29:19;95594.31;;;1.26;72.38
21821;BME280;11073;48.586;12.066;2022-12-11T01:31:47;95594.09;;;1.27;72.45
21821;BME280;11073;48.586;12.066;2022-12-11T01:34:16;95585.69;;;1.24;72.28
21821;BME280;11073;48.586;12.066;2022-12-11T01:36:45;95586.50;;;1.24;72.24
21821;BME280;11073;48.586;12.066;2022-12-11T01:39:13;95588.38;;;1.24;72.34
21821;BME280;11073;48.586;12.066;2022-12-11T01:41:42;95586.09;;;1.21;72.41
21821;BME280;11073;48.586;12.066;2022-12-11T01:47:15;95590.22;;;1.23;72.38
21821;BME280;11073;48.586;12.066;2022-12-11T01:49:44;95585.69;;;1.17;72.21
21821;BME280;11073;48.586;12.066;2022-12-11T01:52:16;95556.06;;;0.92;72.26
21821;BME280;11073;48.586;12.066;2022-12-11T01:54:47;95588.94;;;1.13;72.46
21821;BME280;11073;48.586;12.066;2022-12-11T01:57:17;95586.47;;;1.11;72.43
21821;BME280;11073;48.586;12.066;2022-12-11T01:59:46;95595.91;;;1.14;72.50
21821;BME280;11073;48.586;12.066;2022-12-11T02:02:20;95594.47;;;1.11;72.44
21821;BME280;11073;48.586;12.066;2022-12-11T02:04:50;95606.16;;;1.10;72.58
21821;BME280;11073;48.586;12.066;2022-12-11T02:07:19;95581.91;;;0.98;72.63
21821;BME280;11073;48.586;12.066;2022-12-11T02:09:48;95596.69;;;1.07;72.58
21821;BME280;11073;48.586;12.066;2022-12-11T02:12:24;95597.53;;;1.08;72.59
21821;BME280;11073;48.586;12.066;2022-12-11T02:15:00;95602.84;;;1.08;72.73
21821;BME280;11073;48.586;12.066;2022-12-11T02:17:36;95593.00;;;1.08;72.68
21821;BME280;11073;48.586;12.066;2022-12-11T02:20:10;95594.25;;;1.13;72.66
21821;BME280;11073;48.586;12.066;2022-12-11T02:22:58;95592.41;;;1.13;72.61
21821;BME280;11073;48.586;12.066;2022-12-11T02:25:31;95592.63;;;1.12;72.60
21821;BME280;11073;48.586;12.066;2022-12-11T02:28:16;95592.00;;;1.09;72.46
21821;BME280;11073;48.586;12.066;2022-12-11T02:30:50;95588.13;;;1.12;72.56
21821;BME280;11073;48.586;12.066;2022-12-11T02:33:22;95572.09;;;1.05;72.40
21821;BME280;11073;48.586;12.066;2022-12-11T02:35:53;95586.88;;;1.15;72.59
21821;BME280;11073;48.586;12.066;2022-12-11T02:38:26;95590.97;;;1.10;72.56
21821;BME280;11073;48.586;12.066;2022-12-11T02:40:57;95582.16;;;1.10;72.49
21821;BME280;11073;48.586;12.066;2022-12-11T02:43:30;95585.66;;;1.10;72.47
21821;BME280;11073;48.586;12.066;2022-12-11T02:46:02;95583.19;;;1.09;72.35
21821;BME280;11073;48.586;12.066;2022-12-11T02:48:32;95565.91;;;0.98;72.25
21821;BME280;11073;48.586;12.066;2022-12-11T02:51:04;95569.19;;;1.00;72.36
21821;BME280;11073;48.586;12.066;2022-12-11T02:53:36;95588.09;;;1.05;72.15
21821;BME280;11073;48.586;12.066;2022-12-11T02:56:09;95580.09;;;1.05;72.34
21821;BME280;11073;48.586;12.066;2022-12-11T02:58:45;95588.69;;;1.07;72.20
21821;BME280;11073;48.586;12.066;2022-12-11T03:01:24;95585.22;;;1.07;72.25
21821;BME280;11073;48.586;12.066;2022-12-11T03:03:53;95580.69;;;1.01;72.17
21821;BME280;11073;48.586;12.066;2022-12-11T03:06:26;95582.97;;;1.04;72.15
21821;BME280;11073;48.586;12.066;2022-12-11T03:08:58;95584.59;;;1.05;72.11
21821;BME280;11073;48.586;12.066;2022-12-11T03:11:27;95586.44;;;1.04;71.95
21821;BME280;11073;48.586;12.066;2022-12-11T03:13:58;95594.22;;;1.06;71.86
21821;BME280;11073;48.586;12.066;2022-12-11T03:16:33;95598.34;;;1.08;71.95
21821;BME280;11073;48.586;12.066;2022-12-11T03:19:09;95598.97;;;1.10;72.01
21821;BME280;11073;48.586;12.066;2022-12-11T03:21:45;95592.03;;;1.16;71.89
21821;BME280;11073;48.586;12.066;2022-12-11T03:24:19;95596.72;;;1.14;71.68
21821;BME280;11073;48.586;12.066;2022-12-11T03:26:54;95597.16;;;1.18;71.78
21821;BME280;11073;48.586;12.066;2022-12-11T03:29:31;95594.25;;;1.13;71.81
21821;BME280;11073;48.586;12.066;2022-12-11T03:32:06;95605.53;;;1.15;71.62
21821;BME280;11073;48.586;12.066;2022-12-11T03:34:40;95607.00;;;1.17;71.70
21821;BME280;11073;48.586;12.066;2022-12-11T03:37:12;95601.47;;;1.19;71.52
21821;BME280;11073;48.586;12.066;2022-12-11T03:39:47;95602.69;;;1.16;71.23
21821;BME280;11073;48.586;12.066;2022-12-11T03:42:19;95603.69;;;1.15;71.12
21821;BME280;11073;48.586;12.066;2022-12-11T03:44:52;95609.66;;;1.10;70.91
21821;BME280;11073;48.586;12.066;2022-12-11T03:47:23;95611.47;;;1.03;70.70
21821;BME280;11073;48.586;12.066;2022-12-11T03:49:53;95608.78;;;1.03;70.81
21821;BME280;11073;48.586;12.066;2022-12-11T03:52:25;95602.00;;;0.94;70.76
21821;BME280;11073;48.586;12.066;2022-12-11T03:54:58;95612.66;;;1.01;70.83
21821;BME280;11073;48.586;12.066;2022-12-11T03:57:29;95620.03;;;0.99;70.66
21821;BME280;11073;48.586;12.066;2022-12-11T04:00:00;95614.69;;;0.92;70.58
21821;BME280;11073;48.586;12.066;2022-12-11T04:02:37;95595.56;;;0.75;70.33
21821;BME280;11073;48.586;12.066;2022-12-11T04:05:07;95614.81;;;0.77;70.26
21821;BME280;11073;48.586;12.066;2022-12-11T04:07:37;95606.00;;;0.77;70.18
21821;BME280;11073;48.586;12.066;2022-12-11T04:10:06;95607.22;;;0.74;70.23
21821;BME280;11073;48.586;12.066;2022-12-11T04:12:35;95608.44;;;0.72;70.22
21821;BME280;11073;48.586;12.066;2022-12-11T04:15:06;95607.81;;;0.70;70.06
21821;BME280;11073;48.586;12.066;2022-12-11T04:17:35;95605.94;;;0.64;70.10
21821;BME280;11073;48.586;12.066;2022-12-11T04:20:22;95605.53;;;0.60;70.06
21821;BME280;11073;48.586;12.066;2022-12-11T04:23:11;95591.53;;;0.51;70.06
21821;BME280;11073;48.586;12.066;2022-12-11T04:26:04;95608.75;;;0.55;69.95
21821;BME280;11073;48.586;12.066;2022-12-11T04:28:34;95617.78;;;0.54;69.74
21821;BME280;11073;48.586;12.066;2022-12-11T04:31:04;95614.50;;;0.52;69.74
21821;BME280;11073;48.586;12.066;2022-12-11T04:33:33;95606.31;;;0.54;69.76
21821;BME280;11073;48.586;12.066;2022-12-11T04:36:02;95613.28;;;0.55;69.72
21821;BME280;11073;48.586;12.066;2022-12-11T04:38:30;95606.31;;;0.54;69.72
21821;BME280;11073;48.586;12.066;2022-12-11T04:40:59;95615.31;;;0.53;69.54
21821;BME280;11073;48.586;12.066;2022-12-11T04:43:28;95613.03;;;0.50;69.49
21821;BME280;11073;48.586;12.066;2022-12-11T04:46:02;95609.94;;;0.46;69.50
21821;BME280;11073;48.586;12.066;2022-12-11T04:48:33;95608.50;;;0.44;69.29
21821;BME280;11073;48.586;12.066;2022-12-11T04:51:02;95600.88;;;0.41;69.47
21821;BME280;11073;48.586;12.066;2022-12-11T04:53:31;95615.66;;;0.43;69.45
21821;BME280;11073;48.586;12.066;2022-12-11T04:56:00;95607.66;;;0.43;69.44
21821;BME280;11073;48.586;12.066;2022-12-11T04:58:29;95607.63;;;0.37;69.30
21821;BME280;11073;48.586;12.066;2022-12-11T05:00:58;95598.81;;;0.36;69.39
21821;BME280;11073;48.586;12.066;2022-12-11T05:03:27;95598.44;;;0.39;69.37
21821;BME280;11073;48.586;12.066;2022-12-11T05:05:57;95595.53;;;0.34;69.30
21821;BME280;11073;48.586;12.066;2022-12-11T05:08:26;95593.25;;;0.31;69.27
21821;BME280;11073;48.586;12.066;2022-12-11T05:10:55;95580.31;;;0.28;69.26
21821;BME280;11073;48.586;12.066;2022-12-11T05:13:26;95588.97;;;0.30;69.30
21821;BME280;11073;48.586;12.066;2022-12-11T05:15:55;95585.47;;;0.30;69.25
21821;BME280;11073;48.586;12.066;2022-12-11T05:18:24;95582.63;;;0.31;69.25
21821;BME280;11073;48.586;12.066;2022-12-11T05:20:54;95583.63;;;0.30;69.26
21821;BME280;11073;48.586;12.066;2022-12-11T05:23:24;95594.66;;;0.27;69.09
21821;BME280;11073;48.586;12.066;2022-12-11T05:25:54;95599.34;;;0.25;69.13
21821;BME280;11073;48.586;12.066;2022-12-11T05:28:24;95594.44;;;0.22;69.12
21821;BME280;11073;48.586;12.066;2022-12-11T05:30:55;95590.94;;;0.21;69.02
21821;BME280;11073;48.586;12.066;2022-12-11T05:33:24;95594.19;;;0.17;69.05
21821;BME280;11073;48.586;12.066;2022-12-11T05:35:53;95598.25;;;0.13;69.04
21821;BME280;11073;48.586;12.066;2022-12-11T05:38:24;95592.69;;;0.08;69.08
21821;BME280;11073;48.586;12.066;2022-12-11T05:40:56;95592.06;;;0.06;69.10
21821;BME280;11073;48.586;12.066;2022-12-11T05:43:27;95579.13;;;0.03;69.19
21821;BME280;11073;48.586;12.066;2022-12-11T05:46:04;95590.16;;;-0.01;69.11
21821;BME280;11073;48.586;12.066;2022-12-11T05:48:32;95599.00;;;0.00;69.25
21821;BME280;11073;48.586;12.066;2022-12-11T05:51:02;95591.56;;;-0.05;69.12
21821;BME280;11073;48.586;12.066;2022-12-11T05:53:32;95596.91;;;-0.05;69.32
21821;BME280;11073;48.586;12.066;2022-12-11T05:56:02;95590.94;;;-0.07;69.14
21821;BME280;11073;48.586;12.066;2022-12-11T05:58:31;95566.31;;;-0.15;69.25
21821;BME280;11073;48.586;12.066;2022-12-11T06:01:00;95582.72;;;-0.12;69.11
21821;BME280;11073;48.586;12.066;2022-12-11T06:03:29;95585.38;;;-0.12;69.31
21821;BME280;11073;48.586;12.066;2022-12-11T06:06:00;95592.34;;;-0.11;69.44
21821;BME280;11073;48.586;12.066;2022-12-11T06:08:29;95599.31;;;-0.10;69.35
21821;BME280;11073;48.586;12.066;2022-12-11T06:10:59;95596.84;;;-0.11;69.45
21821;BME280;11073;48.586;12.066;2022-12-11T06:13:28;95589.88;;;-0.12;69.40
21821;BME280;11073;48.586;12.066;2022-12-11T06:15:59;95583.94;;;-0.14;69.31
21821;BME280;11073;48.586;12.066;2022-12-11T06:18:29;95591.91;;;-0.14;69.47
21821;BME280;11073;48.586;12.066;2022-12-11T06:20:58;95583.47;;;-0.18;69.46
21821;BME280;11073;48.586;12.066;2022-12-11T06:23:26;95594.94;;;-0.17;69.48
21821;BME280;11073;48.586;12.066;2022-12-11T06:25:55;95592.28;;;-0.17;69.53
21821;BME280;11073;48.586;12.066;2022-12-11T06:28:26;95589.63;;;-0.17;69.54
21821;BME280;11073;48.586;12.066;2022-12-11T06:30:58;95580.63;;;-0.16;69.64
21821;BME280;11073;48.586;12.066;2022-12-11T06:33:28;95593.72;;;-0.15;69.70
21821;BME280;11073;48.586;12.066;2022-12-11T06:36:00;95581.66;;;-0.17;69.78
21821;BME280;11073;48.586;12.066;2022-12-11T06:38:29;95589.69;;;-0.11;69.70
21821;BME280;11073;48.586;12.066;2022-12-11T06:40:59;95597.72;;;-0.04;69.62
21821;BME280;11073;48.586;12.066;2022-12-11T06:43:30;95603.44;;;-0.07;69.62
21821;BME280;11073;48.586;12.066;2022-12-11T06:45:58;95606.09;;;-0.07;69.60
21821;BME280;11073;48.586;12.066;2022-12-11T06:48:31;95598.13;;;-0.07;69.85
21821;BME280;11073;48.586;12.066;2022-12-11T06:51:04;95598.53;;;-0.04;69.64
21821;BME280;11073;48.586;12.066;2022-12-11T06:53:32;95612.88;;;-0.05;69.66
21821;BME280;11073;48.586;12.066;2022-12-11T06:56:02;95606.97;;;0.00;69.62
21821;BME280;11073;48.586;12.066;2022-12-11T06:58:34;95601.66;;;0.00;69.56
21821;BME280;11073;48.586;12.066;2022-12-11T07:01:04;95600.38;;;-0.04;69.50
21821;BME280;11073;48.586;12.066;2022-12-11T07:03:33;95601.41;;;-0.05;69.51
21821;BME280;11073;48.586;12.066;2022-12-11T07:06:01;95600.38;;;-0.04;69.36
21821;BME280;11073;48.586;12.066;2022-12-11T07:08:31;95613.69;;;-0.04;69.54
21821;BME280;11073;48.586;12.066;2022-12-11T07:11:03;95604.06;;;-0.05;69.49
21821;BME280;11073;48.586;12.066;2022-12-11T07:13:34;95605.50;;;-0.03;69.55
21821;BME280;11073;48.586;12.066;2022-12-11T07:16:03;95605.50;;;-0.03;69.52
21821;BME280;11073;48.586;12.066;2022-12-11T07:18:37;95604.06;;;-0.05;69.46
21821;BME280;11073;48.586;12.066;2022-12-11T07:21:07;95610.22;;;-0.05;69.35
21821;BME280;11073;48.586;12.066;2022-12-11T07:23:37;95604.69;;;-0.03;69.54
21821;BME280;11073;48.586;12.066;2022-12-11T07:26:06;95603.88;;;-0.04;69.54
21821;BME280;11073;48.586;12.066;2022-12-11T07:28:37;95614.50;;;-0.04;69.57
21821;BME280;11073;48.586;12.066;2022-12-11T07:31:06;95607.97;;;-0.01;69.61
21821;BME280;11073;48.586;12.066;2022-12-11T07:33:35;95613.94;;;0.01;69.75
21821;BME280;11073;48.586;12.066;2022-12-11T07:36:05;95616.66;;;0.08;69.56
21821;BME280;11073;48.586;12.066;2022-12-11T07:38:36;95617.53;;;0.15;69.66
21821;BME280;11073;48.586;12.066;2022-12-11T07:41:07;95617.31;;;0.16;69.79
21821;BME280;11073;48.586;12.066;2022-12-11T07:43:37;95632.19;;;0.32;69.76
21821;BME280;11073;48.586;12.066;2022-12-11T07:46:09;95630.53;;;0.31;69.66
21821;BME280;11073;48.586;12.066;2022-12-11T07:48:40;95621.28;;;0.27;69.57
21821;BME280;11073;48.586;12.066;2022-12-11T07:51:10;95631.97;;;0.34;69.59
21821;BME280;11073;48.586;12.066;2022-12-11T07:53:43;95635.09;;;0.37;69.31
21821;BME280;11073;48.586;12.066;2022-12-11T07:56:12;95635.72;;;0.39;69.28
21821;BME280;11073;48.586;12.066;2022-12-11T07:58:42;95639.81;;;0.42;69.28
21821;BME280;11073;48.586;12.066;2022-12-11T08:01:12;95635.50;;;0.41;69.06
21821;BME280;11073;48.586;12.066;2022-12-11T08:03:42;95634.28;;;0.43;69.18
21821;BME280;11073;48.586;12.066;2022-12-11T08:06:11;95638.63;;;0.44;69.13
21821;BME280;11073;48.586;12.066;2022-12-11T08:08:40;95638.63;;;0.44;68.87
21821;BME280;11073;48.586;12.066;2022-12-11T08:11:11;95639.44;;;0.45;68.74
21821;BME280;11073;48.586;12.066;2022-12-11T08:13:42;95641.84;;;0.40;68.52
21821;BME280;11073;48.586;12.066;2022-12-11T08:16:12;95631.00;;;0.41;68.56
21821;BME280;11073;48.586;12.066;2022-12-11T08:18:43;95639.63;;;0.43;68.70
21821;BME280;11073;48.586;12.066;2022-12-11T08:21:14;95641.09;;;0.46;68.67
21821;BME280;11073;48.586;12.066;2022-12-11T08:23:44;95624.91;;;0.47;68.59
21821;BME280;11073;48.586;12.066;2022-12-11T08:26:14;95631.50;;;0.51;68.50
21821;BME280;11073;48.586;12.066;2022-12-11T08:28:44;95628.44;;;0.54;68.37
21821;BME280;11073;48.586;12.066;2022-12-11T08:31:15;95634.78;;;0.53;68.25
21821;BME280;11073;48.586;12.066;2022-12-11T08:33:44;95636.63;;;0.53;68.14
21821;BME280;11073;48.586;12.066;2022-12-11T08:36:15;95644.81;;;0.51;68.18
21821;BME280;11073;48.586;12.066;2022-12-11T08:38:45;95636.81;;;0.51;68.13
21821;BME280;11073;48.586;12.066;2022-12-11T08:41:15;95642.16;;;0.51;68.10
21821;BME280;11073;48.586;12.066;2022-12-11T08:43:45;95644.63;;;0.53;68.15
21821;BME280;11073;48.586;12.066;2022-12-11T08:46:14;95644.00;;;0.51;68.12
21821;BME280;11073;48.586;12.066;2022-12-11T08:48:43;95637.41;;;0.47;67.99
21821;BME280;11073;48.586;12.066;2022-12-11T08:51:14;95645.28;;;0.62;67.88
21821;BME280;11073;48.586;12.066;2022-12-11T08:53:43;95616.28;;;0.45;67.82
21821;BME280;11073;48.586;12.066;2022-12-11T08:56:14;95644.50;;;0.68;67.87
21821;BME280;11073;48.586;12.066;2022-12-11T08:58:46;95655.16;;;0.68;67.84
21821;BME280;11073;48.586;12.066;2022-12-11T09:01:17;95649.03;;;0.74;67.67
21821;BME280;11073;48.586;12.066;2022-12-11T09:03:48;95645.59;;;0.80;67.77
21821;BME280;11073;48.586;12.066;2022-12-11T09:06:20;95651.13;;;0.85;67.57
21821;BME280;11073;48.586;12.066;2022-12-11T09:08:50;95656.69;;;0.83;67.58
21821;BME280;11073;48.586;12.066;2022-12-11T09:11:22;95656.72;;;0.90;67.72
21821;BME280;11073;48.586;12.066;2022-12-11T09:13:53;95653.22;;;0.90;67.40
21821;BME280;11073;48.586;12.066;2022-12-11T09:16:24;95640.09;;;0.88;67.33
21821;BME280;11073;48.586;12.066;2022-12-11T09:18:56;95649.34;;;0.92;67.25
21821;BME280;11073;48.586;12.066;2022-12-11T09:21:26;95645.81;;;0.85;67.11
21821;BME280;11073;48.586;12.066;2022-12-11T09:23:58;95649.94;;;0.88;67.11
21821;BME280;11073;48.586;12.066;2022-12-11T09:26:28;95643.38;;;0.90;67.09
21821;BME280;11073;48.586;12.066;2022-12-11T09:29:01;95641.13;;;0.94;67.33
21821;BME280;11073;48.586;12.066;2022-12-11T09:31:33;95639.16;;;1.02;67.07
21821;BME280;11073;48.586;12.066;2022-12-11T09:34:04;95637.72;;;1.06;66.98
21821;BME280;11073;48.586;12.066;2022-12-11T09:36:33;95631.78;;;1.11;66.92
21821;BME280;11073;48.586;12.066;2022-12-11T09:39:04;95630.19;;;1.17;66.90
21821;BME280;11073;48.586;12.066;2022-12-11T09:41:36;95637.78;;;1.20;66.71
21821;BME280;11073;48.586;12.066;2022-12-11T09:44:27;95634.91;;;1.21;66.66
21821;BME280;11073;48.586;12.066;2022-12-11T09:46:58;95622.78;;;1.19;66.58
21821;BME280;11073;48.586;12.066;2022-12-11T09:49:33;95628.97;;;1.26;66.58
21821;BME280;11073;48.586;12.066;2022-12-11T09:52:09;95616.03;;;1.23;66.36
21821;BME280;11073;48.586;12.066;2022-12-11T09:54:44;95617.50;;;1.25;66.44
21821;BME280;11073;48.586;12.066;2022-12-11T09:57:24;95619.75;;;1.28;66.32
21821;BME280;11073;48.586;12.066;2022-12-11T10:00:21;95609.91;;;1.29;66.31
21821;BME280;11073;48.586;12.066;2022-12-11T10:06:01;95610.13;;;1.34;66.09
21821;BME280;11073;48.586;12.066;2022-12-11T10:08:35;95621.03;;;1.39;66.08
21821;BME280;11073;48.586;12.066;2022-12-11T10:14:07;95608.69;;;1.45;65.87
21821;BME280;11073;48.586;12.066;2022-12-11T10:16:40;95590.66;;;1.40;65.65
21821;BME280;11073;48.586;12.066;2022-12-11T10:19:14;95601.53;;;1.52;66.10
21821;BME280;11073;48.586;12.066;2022-12-11T10:21:45;95601.75;;;1.50;65.65
21821;BME280;11073;48.586;12.066;2022-12-11T10:24:19;95589.63;;;1.48;65.50
21821;BME280;11073;48.586;12.066;2022-12-11T10:27:14;95589.22;;;1.44;65.48
21821;BME280;11073;48.586;12.066;2022-12-11T10:29:46;95593.09;;;1.35;65.26
21821;BME280;11073;48.586;12.066;2022-12-11T10:32:21;95597.81;;;1.33;65.32
21821;BME280;11073;48.586;12.066;2022-12-11T10:34:57;95591.88;;;1.31;65.42
21821;BME280;11073;48.586;12.066;2022-12-11T10:37:26;95592.25;;;1.28;65.42
21821;BME280;11073;48.586;12.066;2022-12-11T10:39:55;95591.03;;;1.24;65.26
21821;BME280;11073;48.586;12.066;2022-12-11T10:42:23;95586.91;;;1.28;65.40
21821;BME280;11073;48.586;12.066;2022-12-11T10:44:57;95587.53;;;1.23;65.33
21821;BME280;11073;48.586;12.066;2022-12-11T10:47:28;95585.25;;;1.14;65.33
21821;BME280;11073;48.586;12.066;2022-12-11T10:49:58;95572.09;;;1.05;64.99
21821;BME280;11073;48.586;12.066;2022-12-11T10:52:31;95585.22;;;1.07;65.32
21821;BME280;11073;48.586;12.066;2022-12-11T10:55:03;95573.91;;;0.98;65.46
21821;BME280;11073;48.586;12.066;2022-12-11T10:57:34;95569.41;;;0.99;65.53
21821;BME280;11073;48.586;12.066;2022-12-11T11:00:05;95568.34;;;0.93;65.61
21821;BME280;11073;48.586;12.066;2022-12-11T11:02:38;95564.47;;;0.89;65.82
21821;BME280;11073;48.586;12.066;2022-12-11T11:05:12;95562.81;;;0.88;65.93
21821;BME280;11073;48.586;12.066;2022-12-11T11:07:41;95561.56;;;0.84;65.94
21821;BME280;11073;48.586;12.066;2022-12-11T11:10:16;95553.97;;;0.81;66.03
21821;BME280;11073;48.586;12.066;2022-12-11T11:12:47;95558.28;;;0.82;66.37
21821;BME280;11073;48.586;12.066;2022-12-11T11:15:18;95556.63;;;0.81;66.38
21821;BME280;11073;48.586;12.066;2022-12-11T11:17:51;95548.22;;;0.77;66.42
21821;BME280;11073;48.586;12.066;2022-12-11T11:20:24;95541.69;;;0.80;66.50
21821;BME280;11073;48.586;12.066;2022-12-11T11:22:56;95539.41;;;0.77;66.50
21821;BME280;11073;48.586;12.066;2022-12-11T11:25:27;95537.97;;;0.74;66.62
21821;BME280;11073;48.586;12.066;2022-12-11T11:27:59;95532.59;;;0.68;66.88
21821;BME280;11073;48.586;12.066;2022-12-11T11:30:31;95537.72;;;0.69;66.93
21821;BME280;11073;48.586;12.066;2022-12-11T11:33:05;95533.19;;;0.63;66.94
21821;BME280;11073;48.586;12.066;2022-12-11T11:35:50;95530.13;;;0.60;67.26
21821;BME280;11073;48.586;12.066;2022-12-11T11:38:21;95526.63;;;0.59;67.44
21821;BME280;11073;48.586;12.066;2022-12-11T11:40:54;95529.47;;;0.58;67.33
21821;BME280;11073;48.586;12.066;2022-12-11T11:43:39;95521.06;;;0.54;67.44
21821;BME280;11073;48.586;12.066;2022-12-11T11:46:13;95525.97;;;0.57;67.37
21821;BME280;11073;48.586;12.066;2022-12-11T11:48:54;95519.66;;;0.58;67.29
21821;BME280;11073;48.586;12.066;2022-12-11T11:51:29;95515.38;;;0.64;67.62
21821;BME280;11073;48.586;12.066;2022-12-11T11:54:08;95513.16;;;0.74;67.66
21821;BME280;11073;48.586;12.066;2022-12-11T11:56:43;95515.66;;;0.82;67.69
21821;BME280;11073;48.586;12.066;2022-12-11T11:59:15;95513.00;;;0.89;67.54
21821;BME280;11073;48.586;12.066;2022-12-11T12:01:47;95506.66;;;0.96;67.43
21821;BME280;11073;48.586;12.066;2022-12-11T12:04:17;95506.69;;;1.03;67.25
21821;BME280;11073;48.586;12.066;2022-12-11T12:07:06;95505.50;;;1.25;67.15
21821;BME280;11073;48.586;12.066;2022-12-11T12:09:45;95500.38;;;1.63;66.78
21821;BME280;11073;48.586;12.066;2022-12-11T12:12:28;95502.63;;;1.86;66.68
21821;BME280;11073;48.586;12.066;2022-12-11T12:15:13;95499.53;;;2.67;66.50
21821;BME280;11073;48.586;12.066;2022-12-11T12:17:51;95501.81;;;3.40;65.77
21821;BME280;11073;48.586;12.066;2022-12-11T12:20:33;95502.47;;;3.92;64.98
21821;BME280;11073;48.586;12.066;2022-12-11T12:23:20;95505.59;;;3.82;64.12
21821;BME280;11073;48.586;12.066;2022-12-11T12:26:01;95490.31;;;3.90;63.40
21821;BME280;11073;48.586;12.066;2022-12-11T12:28:40;95497.88;;;4.18;62.89
21821;BME280;11073;48.586;12.066;2022-12-11T12:31:25;95496.28;;;3.92;62.31
21821;BME280;11073;48.586;12.066;2022-12-11T12:34:05;95493.66;;;3.60;62.13
21821;BME280;11073;48.586;12.066;2022-12-11T12:36:44;95488.91;;;3.30;62.06
21821;BME280;11073;48.586;12.066;2022-12-11T12:39:20;95485.59;;;3.03;61.89
21821;BME280;11073;48.586;12.066;2022-12-11T12:41:59;95488.94;;;2.92;61.95
21821;BME280;11073;48.586;12.066;2022-12-11T12:44:40;95486.59;;;3.09;61.83
21821;BME280;11073;48.586;12.066;2022-12-11T12:47:14;95486.13;;;3.19;61.63
21821;BME280;11073;48.586;12.066;2022-12-11T12:49:46;95491.41;;;3.25;61.40
21821;BME280;11073;48.586;12.066;2022-12-11T12:52:20;95493.97;;;3.14;61.20
21821;BME280;11073;48.586;12.066;2022-12-11T12:54:55;95485.59;;;3.03;60.93
21821;BME280;11073;48.586;12.066;2022-12-11T12:57:47;95489.56;;;2.88;60.84
21821;BME280;11073;48.586;12.066;2022-12-11T13:00:28;95495.81;;;2.75;60.78
21821;BME280;11073;48.586;12.066;2022-12-11T13:02:58;95490.31;;;2.63;60.55
21821;BME280;11073;48.586;12.066;2022-12-11T13:05:32;95494.88;;;2.56;60.40
21821;BME280;11073;48.586;12.066;2022-12-11T13:08:04;95493.25;;;2.48;60.45
21821;BME280;11073;48.586;12.066;2022-12-11T13:10:36;95486.50;;;2.39;60.30
21821;BME280;11073;48.586;12.066;2022-12-11T13:13:34;95495.13;;;2.41;60.38
21821;BME280;11073;48.586;12.066;2022-12-11T13:16:21;95474.19;;;2.32;60.33
21821;BME280;11073;48.586;12.066;2022-12-11T13:18:52;95488.75;;;2.42;60.38
21821;BME280;11073;48.586;12.066;2022-12-11T13:21:27;95488.50;;;2.51;60.18
21821;BME280;11073;48.586;12.066;2022-12-11T13:24:14;95489.97;;;2.46;59.91
21821;BME280;11073;48.586;12.066;2022-12-11T13:26:43;95489.81;;;2.35;59.92
21821;BME280;11073;48.586;12.066;2022-12-11T13:29:28;95485.72;;;2.26;60.04
21821;BME280;11073;48.586;12.066;2022-12-11T13:31:59;95492.72;;;2.13;59.92
21821;BME280;11073;48.586;12.066;2022-12-11T13:34:31;95491.31;;;2.04;60.12
21821;BME280;11073;48.586;12.066;2022-12-11T13:37:01;95494.38;;;2.01;60.01